首页
METAR-TAF:

METAR-TAF

机场 :

劍橋, 英格兰

纬度: 52-12N, 经度: 000-11E, 海拔: 15米

当前天气观测

该预报发布于2小时和25分钟前的16:50 UTC
风速7节,风向
温度 19°C
湿度 46%
气压 1018 hPa
能见度10公里或以上
1500米以下无云,无积雨云

METAR: EGSC 211650Z 36007KT CAVOK 19/07 Q1018

时间: 20:15 (19:15 UTC)

预报

该预报发布于5小时和16分钟前的13:59 UTC
预报有效从21日的 15点(UTC)到 21日的 19点(UTC)
风速7节,风向西北
能见度10公里或以上
散云层高于4500英尺

TAF: EGSC 211359Z 2115/2119 32007KT 9999 SCT045

超过4000个机场的气象观测和天气预报(METAR&TAF报告)。

可查询的气象台以黄色和红色小点在地图上表示。

将鼠标移到小点上方,可查看气象台名称。

然后点击查看天气观测和预报。

如需切换地图:点击带黑十字的绿色按钮放大地图;点击带横线的绿色按钮缩小地图;或者点击绿色箭头查看邻近地区的地图。


METAR-TAF: